sensor_id;sensor_type;location;lat;lon;timestamp;temperature;humidity
21495;DHT22;10909;53.590;10.054;2023-02-04T00:01:44;7.90;82.50
21495;DHT22;10909;53.590;10.054;2023-02-04T00:04:13;7.90;82.60
21495;DHT22;10909;53.590;10.054;2023-02-04T00:06:39;7.90;82.80
21495;DHT22;10909;53.590;10.054;2023-02-04T00:09:05;7.90;82.70
21495;DHT22;10909;53.590;10.054;2023-02-04T00:11:31;7.90;82.80
21495;DHT22;10909;53.590;10.054;2023-02-04T00:13:57;7.90;82.70
21495;DHT22;10909;53.590;10.054;2023-02-04T00:16:23;7.90;82.90
21495;DHT22;10909;53.590;10.054;2023-02-04T00:18:48;7.90;82.90
21495;DHT22;10909;53.590;10.054;2023-02-04T00:21:14;7.90;82.60
21495;DHT22;10909;53.590;10.054;2023-02-04T00:23:40;7.80;82.20
21495;DHT22;10909;53.590;10.054;2023-02-04T00:26:06;7.80;81.90
21495;DHT22;10909;53.590;10.054;2023-02-04T00:28:31;7.80;81.80
21495;DHT22;10909;53.590;10.054;2023-02-04T00:30:57;7.70;81.80
21495;DHT22;10909;53.590;10.054;2023-02-04T00:33:23;7.70;81.80
21495;DHT22;10909;53.590;10.054;2023-02-04T00:35:48;7.70;82.60
21495;DHT22;10909;53.590;10.054;2023-02-04T00:38:14;7.60;81.70
21495;DHT22;10909;53.590;10.054;2023-02-04T00:40:40;7.60;81.70
21495;DHT22;10909;53.590;10.054;2023-02-04T00:43:06;7.60;81.60
21495;DHT22;10909;53.590;10.054;2023-02-04T00:45:31;7.50;81.50
21495;DHT22;10909;53.590;10.054;2023-02-04T00:47:57;7.50;81.60
21495;DHT22;10909;53.590;10.054;2023-02-04T00:50:23;7.50;81.80
21495;DHT22;10909;53.590;10.054;2023-02-04T00:52:49;7.40;81.70
21495;DHT22;10909;53.590;10.054;2023-02-04T00:55:15;7.40;81.80
21495;DHT22;10909;53.590;10.054;2023-02-04T00:57:43;7.40;81.80
21495;DHT22;10909;53.590;10.054;2023-02-04T01:00:09;7.30;81.70
21495;DHT22;10909;53.590;10.054;2023-02-04T01:02:35;7.30;81.70
21495;DHT22;10909;53.590;10.054;2023-02-04T01:05:02;7.30;81.90
21495;DHT22;10909;53.590;10.054;2023-02-04T01:07:27;7.30;82.10
21495;DHT22;10909;53.590;10.054;2023-02-04T01:09:53;7.30;82.40
21495;DHT22;10909;53.590;10.054;2023-02-04T01:12:19;7.30;82.60
21495;DHT22;10909;53.590;10.054;2023-02-04T01:14:47;7.30;82.70
21495;DHT22;10909;53.590;10.054;2023-02-04T01:17:12;7.30;82.80
21495;DHT22;10909;53.590;10.054;2023-02-04T01:19:38;7.30;82.70
21495;DHT22;10909;53.590;10.054;2023-02-04T01:22:04;7.30;82.60
21495;DHT22;10909;53.590;10.054;2023-02-04T01:24:29;7.40;82.60
21495;DHT22;10909;53.590;10.054;2023-02-04T01:26:55;7.40;82.50
21495;DHT22;10909;53.590;10.054;2023-02-04T01:29:20;7.40;82.40
21495;DHT22;10909;53.590;10.054;2023-02-04T01:31:46;7.40;82.50
21495;DHT22;10909;53.590;10.054;2023-02-04T01:34:12;7.40;82.40
21495;DHT22;10909;53.590;10.054;2023-02-04T01:36:38;7.40;82.40
21495;DHT22;10909;53.590;10.054;2023-02-04T01:39:03;7.40;82.60
21495;DHT22;10909;53.590;10.054;2023-02-04T01:41:29;7.40;82.70
21495;DHT22;10909;53.590;10.054;2023-02-04T01:43:55;7.40;82.90
21495;DHT22;10909;53.590;10.054;2023-02-04T01:46:21;7.40;82.80
21495;DHT22;10909;53.590;10.054;2023-02-04T01:48:46;7.40;82.70
21495;DHT22;10909;53.590;10.054;2023-02-04T01:51:15;7.40;82.80
21495;DHT22;10909;53.590;10.054;2023-02-04T01:53:42;7.40;82.70
21495;DHT22;10909;53.590;10.054;2023-02-04T01:56:19;7.40;82.60
21495;DHT22;10909;53.590;10.054;2023-02-04T01:58:46;7.50;82.50
21495;DHT22;10909;53.590;10.054;2023-02-04T02:01:14;7.50;82.60
21495;DHT22;10909;53.590;10.054;2023-02-04T02:03:41;7.50;82.50
21495;DHT22;10909;53.590;10.054;2023-02-04T02:06:08;7.40;82.60
21495;DHT22;10909;53.590;10.054;2023-02-04T02:08:35;7.50;82.70
21495;DHT22;10909;53.590;10.054;2023-02-04T02:11:02;7.50;82.80
21495;DHT22;10909;53.590;10.054;2023-02-04T02:13:28;7.50;82.90
21495;DHT22;10909;53.590;10.054;2023-02-04T02:15:54;7.50;82.70
21495;DHT22;10909;53.590;10.054;2023-02-04T02:18:20;7.50;82.70
21495;DHT22;10909;53.590;10.054;2023-02-04T02:20:46;7.50;82.60
21495;DHT22;10909;53.590;10.054;2023-02-04T02:25:47;7.50;82.30
21495;DHT22;10909;53.590;10.054;2023-02-04T02:28:16;7.50;82.30
21495;DHT22;10909;53.590;10.054;2023-02-04T02:30:43;7.40;82.30
21495;DHT22;10909;53.590;10.054;2023-02-04T02:33:12;7.40;82.00
21495;DHT22;10909;53.590;10.054;2023-02-04T02:35:42;7.40;81.90
21495;DHT22;10909;53.590;10.054;2023-02-04T02:38:11;7.30;81.60
21495;DHT22;10909;53.590;10.054;2023-02-04T02:40:38;7.30;81.50
21495;DHT22;10909;53.590;10.054;2023-02-04T02:43:04;7.20;81.50
21495;DHT22;10909;53.590;10.054;2023-02-04T02:45:31;7.20;81.60
21495;DHT22;10909;53.590;10.054;2023-02-04T02:48:00;7.10;81.70
21495;DHT22;10909;53.590;10.054;2023-02-04T02:50:31;7.10;81.70
21495;DHT22;10909;53.590;10.054;2023-02-04T02:52:58;7.00;81.80
21495;DHT22;10909;53.590;10.054;2023-02-04T02:55:25;7.00;81.80
21495;DHT22;10909;53.590;10.054;2023-02-04T02:57:52;7.00;81.80
21495;DHT22;10909;53.590;10.054;2023-02-04T03:00:21;6.90;81.80
21495;DHT22;10909;53.590;10.054;2023-02-04T03:05:29;6.90;81.90
21495;DHT22;10909;53.590;10.054;2023-02-04T03:07:57;6.80;81.90
21495;DHT22;10909;53.590;10.054;2023-02-04T03:10:23;6.70;81.80
21495;DHT22;10909;53.590;10.054;2023-02-04T03:12:49;6.70;81.90
21495;DHT22;10909;53.590;10.054;2023-02-04T03:15:15;6.60;82.00
21495;DHT22;10909;53.590;10.054;2023-02-04T03:17:41;6.70;82.20
21495;DHT22;10909;53.590;10.054;2023-02-04T03:20:10;6.70;82.30
21495;DHT22;10909;53.590;10.054;2023-02-04T03:22:35;6.60;82.30
21495;DHT22;10909;53.590;10.054;2023-02-04T03:25:02;6.60;82.30
21495;DHT22;10909;53.590;10.054;2023-02-04T03:27:28;6.60;82.40
21495;DHT22;10909;53.590;10.054;2023-02-04T03:29:53;6.60;82.50
21495;DHT22;10909;53.590;10.054;2023-02-04T03:32:19;6.60;82.50
21495;DHT22;10909;53.590;10.054;2023-02-04T03:34:45;6.50;82.40
21495;DHT22;10909;53.590;10.054;2023-02-04T03:37:11;6.50;82.50
21495;DHT22;10909;53.590;10.054;2023-02-04T03:39:37;6.50;82.60
21495;DHT22;10909;53.590;10.054;2023-02-04T03:42:02;6.50;82.60
21495;DHT22;10909;53.590;10.054;2023-02-04T03:44:30;6.50;82.60
21495;DHT22;10909;53.590;10.054;2023-02-04T03:46:56;6.40;82.60
21495;DHT22;10909;53.590;10.054;2023-02-04T03:49:22;6.40;82.80
21495;DHT22;10909;53.590;10.054;2023-02-04T03:51:48;6.40;82.80
21495;DHT22;10909;53.590;10.054;2023-02-04T03:54:13;6.40;82.90
21495;DHT22;10909;53.590;10.054;2023-02-04T03:56:39;6.40;83.20
21495;DHT22;10909;53.590;10.054;2023-02-04T03:59:05;6.40;83.50
21495;DHT22;10909;53.590;10.054;2023-02-04T04:01:31;6.40;83.80
21495;DHT22;10909;53.590;10.054;2023-02-04T04:03:56;6.40;83.90
21495;DHT22;10909;53.590;10.054;2023-02-04T04:06:22;6.50;84.10
21495;DHT22;10909;53.590;10.054;2023-02-04T04:08:48;6.50;84.20
21495;DHT22;10909;53.590;10.054;2023-02-04T04:11:13;6.60;84.40
21495;DHT22;10909;53.590;10.054;2023-02-04T04:13:39;6.60;84.40
21495;DHT22;10909;53.590;10.054;2023-02-04T04:16:05;6.60;84.20
21495;DHT22;10909;53.590;10.054;2023-02-04T04:18:32;6.70;84.20
21495;DHT22;10909;53.590;10.054;2023-02-04T04:20:58;6.70;84.20
21495;DHT22;10909;53.590;10.054;2023-02-04T04:23:24;6.70;84.10
21495;DHT22;10909;53.590;10.054;2023-02-04T04:25:50;6.70;84.00
21495;DHT22;10909;53.590;10.054;2023-02-04T04:28:15;6.80;84.10
21495;DHT22;10909;53.590;10.054;2023-02-04T04:30:41;6.80;84.00
21495;DHT22;10909;53.590;10.054;2023-02-04T04:33:07;6.80;83.90
21495;DHT22;10909;53.590;10.054;2023-02-04T04:35:33;6.80;83.80
21495;DHT22;10909;53.590;10.054;2023-02-04T04:38:02;6.80;83.60
21495;DHT22;10909;53.590;10.054;2023-02-04T04:40:28;6.80;83.50
21495;DHT22;10909;53.590;10.054;2023-02-04T04:42:54;6.80;83.50
21495;DHT22;10909;53.590;10.054;2023-02-04T04:45:20;6.80;83.50
21495;DHT22;10909;53.590;10.054;2023-02-04T04:47:46;6.80;83.50
21495;DHT22;10909;53.590;10.054;2023-02-04T04:50:12;6.80;83.50
21495;DHT22;10909;53.590;10.054;2023-02-04T04:52:37;6.80;83.50
21495;DHT22;10909;53.590;10.054;2023-02-04T04:55:03;6.80;83.60
21495;DHT22;10909;53.590;10.054;2023-02-04T04:57:30;6.80;83.50
21495;DHT22;10909;53.590;10.054;2023-02-04T04:59:55;6.80;83.40
21495;DHT22;10909;53.590;10.054;2023-02-04T05:02:21;6.80;83.30
21495;DHT22;10909;53.590;10.054;2023-02-04T05:04:47;6.80;83.20
21495;DHT22;10909;53.590;10.054;2023-02-04T05:07:12;6.70;83.10
21495;DHT22;10909;53.590;10.054;2023-02-04T05:09:38;6.70;83.00
21495;DHT22;10909;53.590;10.054;2023-02-04T05:12:04;6.80;83.10
21495;DHT22;10909;53.590;10.054;2023-02-04T05:14:30;6.70;83.00
21495;DHT22;10909;53.590;10.054;2023-02-04T05:16:56;6.60;82.90
21495;DHT22;10909;53.590;10.054;2023-02-04T05:19:21;6.60;82.90
21495;DHT22;10909;53.590;10.054;2023-02-04T05:21:47;6.60;82.80
21495;DHT22;10909;53.590;10.054;2023-02-04T05:24:12;6.50;82.70
21495;DHT22;10909;53.590;10.054;2023-02-04T05:26:38;6.50;82.60
21495;DHT22;10909;53.590;10.054;2023-02-04T05:29:04;6.40;82.60
21495;DHT22;10909;53.590;10.054;2023-02-04T05:31:30;6.40;82.60
21495;DHT22;10909;53.590;10.054;2023-02-04T05:33:56;6.40;82.60
21495;DHT22;10909;53.590;10.054;2023-02-04T05:36:21;6.40;82.60
21495;DHT22;10909;53.590;10.054;2023-02-04T05:38:47;6.30;82.60
21495;DHT22;10909;53.590;10.054;2023-02-04T05:41:13;6.20;82.60
21495;DHT22;10909;53.590;10.054;2023-02-04T05:43:38;6.20;82.60
21495;DHT22;10909;53.590;10.054;2023-02-04T05:46:04;6.20;82.60
21495;DHT22;10909;53.590;10.054;2023-02-04T05:48:30;6.20;82.50
21495;DHT22;10909;53.590;10.054;2023-02-04T05:50:56;6.10;82.50
21495;DHT22;10909;53.590;10.054;2023-02-04T05:53:22;6.10;82.50
21495;DHT22;10909;53.590;10.054;2023-02-04T05:55:48;6.10;82.50
21495;DHT22;10909;53.590;10.054;2023-02-04T05:58:14;6.10;82.60
21495;DHT22;10909;53.590;10.054;2023-02-04T06:00:39;6.10;82.60
21495;DHT22;10909;53.590;10.054;2023-02-04T06:03:08;6.00;82.60
21495;DHT22;10909;53.590;10.054;2023-02-04T06:05:34;6.00;82.60
21495;DHT22;10909;53.590;10.054;2023-02-04T06:08:06;6.00;82.60
21495;DHT22;10909;53.590;10.054;2023-02-04T06:10:32;6.00;82.70
21495;DHT22;10909;53.590;10.054;2023-02-04T06:12:57;5.90;82.60
21495;DHT22;10909;53.590;10.054;2023-02-04T06:15:23;5.90;82.70
21495;DHT22;10909;53.590;10.054;2023-02-04T06:17:49;5.90;82.60
21495;DHT22;10909;53.590;10.054;2023-02-04T06:20:14;5.90;82.60
21495;DHT22;10909;53.590;10.054;2023-02-04T06:22:40;5.80;82.50
21495;DHT22;10909;53.590;10.054;2023-02-04T06:25:06;5.80;82.50
21495;DHT22;10909;53.590;10.054;2023-02-04T06:27:32;5.80;82.70
21495;DHT22;10909;53.590;10.054;2023-02-04T06:29:58;5.70;82.60
21495;DHT22;10909;53.590;10.054;2023-02-04T06:32:23;5.70;82.80
21495;DHT22;10909;53.590;10.054;2023-02-04T06:34:49;5.70;82.90
21495;DHT22;10909;53.590;10.054;2023-02-04T06:37:15;5.70;83.00
21495;DHT22;10909;53.590;10.054;2023-02-04T06:39:42;5.60;83.00
21495;DHT22;10909;53.590;10.054;2023-02-04T06:42:08;5.60;83.00
21495;DHT22;10909;53.590;10.054;2023-02-04T06:44:34;5.60;83.00
21495;DHT22;10909;53.590;10.054;2023-02-04T06:46:59;5.60;83.20
21495;DHT22;10909;53.590;10.054;2023-02-04T06:49:25;5.60;83.20
21495;DHT22;10909;53.590;10.054;2023-02-04T06:51:52;5.60;83.30
21495;DHT22;10909;53.590;10.054;2023-02-04T06:54:19;5.60;83.40
21495;DHT22;10909;53.590;10.054;2023-02-04T06:56:45;5.60;83.50
21495;DHT22;10909;53.590;10.054;2023-02-04T06:59:13;5.60;83.50
21495;DHT22;10909;53.590;10.054;2023-02-04T07:01:43;5.60;83.60
21495;DHT22;10909;53.590;10.054;2023-02-04T07:04:09;5.60;83.60
21495;DHT22;10909;53.590;10.054;2023-02-04T07:06:34;5.60;83.60
21495;DHT22;10909;53.590;10.054;2023-02-04T07:09:00;5.50;84.40
21495;DHT22;10909;53.590;10.054;2023-02-04T07:11:27;5.60;83.80
21495;DHT22;10909;53.590;10.054;2023-02-04T07:13:53;5.60;83.90
21495;DHT22;10909;53.590;10.054;2023-02-04T07:16:18;5.60;83.90
21495;DHT22;10909;53.590;10.054;2023-02-04T07:18:44;5.70;83.90
21495;DHT22;10909;53.590;10.054;2023-02-04T07:21:10;5.70;83.90
21495;DHT22;10909;53.590;10.054;2023-02-04T07:23:36;5.70;83.80
21495;DHT22;10909;53.590;10.054;2023-02-04T07:26:03;5.60;83.60
21495;DHT22;10909;53.590;10.054;2023-02-04T07:28:29;5.70;83.80
21495;DHT22;10909;53.590;10.054;2023-02-04T07:30:55;5.60;83.70
21495;DHT22;10909;53.590;10.054;2023-02-04T07:33:22;5.70;83.90
21495;DHT22;10909;53.590;10.054;2023-02-04T07:35:47;5.70;83.90
21495;DHT22;10909;53.590;10.054;2023-02-04T07:38:13;5.70;84.00
21495;DHT22;10909;53.590;10.054;2023-02-04T07:40:39;5.70;84.00
21495;DHT22;10909;53.590;10.054;2023-02-04T07:43:05;5.70;84.00
21495;DHT22;10909;53.590;10.054;2023-02-04T07:45:30;5.70;84.10
21495;DHT22;10909;53.590;10.054;2023-02-04T07:47:56;5.70;84.10
21495;DHT22;10909;53.590;10.054;2023-02-04T07:50:22;5.70;84.10
21495;DHT22;10909;53.590;10.054;2023-02-04T07:52:47;5.70;83.90
21495;DHT22;10909;53.590;10.054;2023-02-04T07:55:15;5.80;84.00
21495;DHT22;10909;53.590;10.054;2023-02-04T07:57:41;5.70;83.90
21495;DHT22;10909;53.590;10.054;2023-02-04T08:00:08;5.80;84.00
21495;DHT22;10909;53.590;10.054;2023-02-04T08:02:35;5.80;84.20
21495;DHT22;10909;53.590;10.054;2023-02-04T08:05:01;5.80;85.00
21495;DHT22;10909;53.590;10.054;2023-02-04T08:07:27;5.80;84.20
21495;DHT22;10909;53.590;10.054;2023-02-04T08:09:53;5.80;84.40
21495;DHT22;10909;53.590;10.054;2023-02-04T08:12:18;5.80;84.20
21495;DHT22;10909;53.590;10.054;2023-02-04T08:14:44;5.80;84.30
21495;DHT22;10909;53.590;10.054;2023-02-04T08:17:10;5.90;84.30
21495;DHT22;10909;53.590;10.054;2023-02-04T08:19:35;5.90;84.30
21495;DHT22;10909;53.590;10.054;2023-02-04T08:22:01;5.90;84.30
21495;DHT22;10909;53.590;10.054;2023-02-04T08:24:27;5.90;84.40
21495;DHT22;10909;53.590;10.054;2023-02-04T08:26:53;5.90;84.40
21495;DHT22;10909;53.590;10.054;2023-02-04T08:29:23;5.90;84.40
21495;DHT22;10909;53.590;10.054;2023-02-04T08:31:50;6.00;84.40
21495;DHT22;10909;53.590;10.054;2023-02-04T08:34:16;6.00;84.30
21495;DHT22;10909;53.590;10.054;2023-02-04T08:36:42;6.00;84.30
21495;DHT22;10909;53.590;10.054;2023-02-04T08:39:10;6.10;84.50
21495;DHT22;10909;53.590;10.054;2023-02-04T08:41:37;6.10;84.50
21495;DHT22;10909;53.590;10.054;2023-02-04T08:44:03;6.10;84.50
21495;DHT22;10909;53.590;10.054;2023-02-04T08:46:30;6.10;84.40
21495;DHT22;10909;53.590;10.054;2023-02-04T08:48:55;6.10;84.30
21495;DHT22;10909;53.590;10.054;2023-02-04T08:51:21;6.10;84.20
21495;DHT22;10909;53.590;10.054;2023-02-04T08:53:47;6.20;84.40
21495;DHT22;10909;53.590;10.054;2023-02-04T08:56:13;6.20;85.10
21495;DHT22;10909;53.590;10.054;2023-02-04T08:58:45;6.20;84.50
21495;DHT22;10909;53.590;10.054;2023-02-04T09:01:11;6.20;84.50
21495;DHT22;10909;53.590;10.054;2023-02-04T09:03:37;6.30;84.60
21495;DHT22;10909;53.590;10.054;2023-02-04T09:06:04;6.30;84.70
21495;DHT22;10909;53.590;10.054;2023-02-04T09:08:30;6.40;84.80
21495;DHT22;10909;53.590;10.054;2023-02-04T09:10:55;6.40;84.50
21495;DHT22;10909;53.590;10.054;2023-02-04T09:13:21;6.40;84.40
21495;DHT22;10909;53.590;10.054;2023-02-04T09:15:47;6.50;84.50
21495;DHT22;10909;53.590;10.054;2023-02-04T09:18:13;6.50;84.80
21495;DHT22;10909;53.590;10.054;2023-02-04T09:20:44;6.60;85.30
21495;DHT22;10909;53.590;10.054;2023-02-04T09:23:11;6.70;85.00
21495;DHT22;10909;53.590;10.054;2023-02-04T09:25:41;6.70;84.70
21495;DHT22;10909;53.590;10.054;2023-02-04T09:28:08;6.80;83.90
21495;DHT22;10909;53.590;10.054;2023-02-04T09:30:41;6.80;83.60
21495;DHT22;10909;53.590;10.054;2023-02-04T09:33:07;6.80;82.90
21495;DHT22;10909;53.590;10.054;2023-02-04T09:35:33;6.80;82.70
21495;DHT22;10909;53.590;10.054;2023-02-04T09:37:59;6.80;82.90
21495;DHT22;10909;53.590;10.054;2023-02-04T09:40:27;6.90;83.40
21495;DHT22;10909;53.590;10.054;2023-02-04T09:42:54;6.90;83.50
21495;DHT22;10909;53.590;10.054;2023-02-04T09:45:23;6.80;83.00
21495;DHT22;10909;53.590;10.054;2023-02-04T09:47:51;6.90;83.20
21495;DHT22;10909;53.590;10.054;2023-02-04T09:50:20;6.90;83.20
21495;DHT22;10909;53.590;10.054;2023-02-04T09:52:48;6.90;83.20
21495;DHT22;10909;53.590;10.054;2023-02-04T09:55:16;7.00;83.20
21495;DHT22;10909;53.590;10.054;2023-02-04T09:57:42;7.00;83.30
21495;DHT22;10909;53.590;10.054;2023-02-04T10:00:18;7.00;83.30
21495;DHT22;10909;53.590;10.054;2023-02-04T10:02:44;7.00;83.40
21495;DHT22;10909;53.590;10.054;2023-02-04T10:05:15;7.00;83.30
21495;DHT22;10909;53.590;10.054;2023-02-04T10:07:41;7.00;83.00
21495;DHT22;10909;53.590;10.054;2023-02-04T10:10:19;7.10;83.20
21495;DHT22;10909;53.590;10.054;2023-02-04T10:12:47;7.10;82.40
21495;DHT22;10909;53.590;10.054;2023-02-04T10:15:16;7.10;82.60
21495;DHT22;10909;53.590;10.054;2023-02-04T10:17:50;7.10;82.90
21495;DHT22;10909;53.590;10.054;2023-02-04T10:20:20;7.10;82.60
21495;DHT22;10909;53.590;10.054;2023-02-04T10:22:48;7.20;82.90
21495;DHT22;10909;53.590;10.054;2023-02-04T10:25:18;7.20;82.70
21495;DHT22;10909;53.590;10.054;2023-02-04T10:27:55;7.20;82.80
21495;DHT22;10909;53.590;10.054;2023-02-04T10:30:30;7.30;82.90
21495;DHT22;10909;53.590;10.054;2023-02-04T10:32:58;7.30;82.80
21495;DHT22;10909;53.590;10.054;2023-02-04T10:35:25;7.40;83.00
21495;DHT22;10909;53.590;10.054;2023-02-04T10:38:05;7.50;83.10
21495;DHT22;10909;53.590;10.054;2023-02-04T10:40:33;7.60;83.10
21495;DHT22;10909;53.590;10.054;2023-02-04T10:43:09;7.70;83.30
21495;DHT22;10909;53.590;10.054;2023-02-04T10:45:35;7.80;83.40
21495;DHT22;10909;53.590;10.054;2023-02-04T10:48:02;7.90;83.60
21495;DHT22;10909;53.590;10.054;2023-02-04T10:50:29;8.00;83.40
21495;DHT22;10909;53.590;10.054;2023-02-04T10:52:57;8.00;83.20
21495;DHT22;10909;53.590;10.054;2023-02-04T10:55:45;8.20;83.90
21495;DHT22;10909;53.590;10.054;2023-02-04T10:58:17;8.30;83.00
21495;DHT22;10909;53.590;10.054;2023-02-04T11:00:44;8.40;83.00
21495;DHT22;10909;53.590;10.054;2023-02-04T11:03:25;8.40;82.80
21495;DHT22;10909;53.590;10.054;2023-02-04T11:05:55;8.60;82.10
21495;DHT22;10909;53.590;10.054;2023-02-04T11:08:33;8.60;81.90
21495;DHT22;10909;53.590;10.054;2023-02-04T11:11:05;8.70;81.90
21495;DHT22;10909;53.590;10.054;2023-02-04T11:16:32;8.80;81.10
21495;DHT22;10909;53.590;10.054;2023-02-04T11:19:05;8.80;80.60
21495;DHT22;10909;53.590;10.054;2023-02-04T11:26:51;8.90;80.80
21495;DHT22;10909;53.590;10.054;2023-02-04T11:29:34;8.90;80.20
21495;DHT22;10909;53.590;10.054;2023-02-04T11:32:28;8.90;79.70
21495;DHT22;10909;53.590;10.054;2023-02-04T11:37:38;8.90;80.00
21495;DHT22;10909;53.590;10.054;2023-02-04T11:40:35;9.00;79.80
21495;DHT22;10909;53.590;10.054;2023-02-04T11:43:14;9.00;79.30
21495;DHT22;10909;53.590;10.054;2023-02-04T11:45:40;9.00;79.40
21495;DHT22;10909;53.590;10.054;2023-02-04T11:48:17;9.00;80.20
21495;DHT22;10909;53.590;10.054;2023-02-04T11:50:58;9.00;78.80
21495;DHT22;10909;53.590;10.054;2023-02-04T11:53:29;9.00;78.80
21495;DHT22;10909;53.590;10.054;2023-02-04T11:55:55;9.00;79.40
21495;DHT22;10909;53.590;10.054;2023-02-04T11:58:21;9.00;79.90
21495;DHT22;10909;53.590;10.054;2023-02-04T12:00:51;9.00;80.20
21495;DHT22;10909;53.590;10.054;2023-02-04T12:03:28;9.10;80.20
21495;DHT22;10909;53.590;10.054;2023-02-04T12:05:56;9.20;79.10
21495;DHT22;10909;53.590;10.054;2023-02-04T12:13:24;9.30;79.00
21495;DHT22;10909;53.590;10.054;2023-02-04T12:16:02;9.40;79.30
21495;DHT22;10909;53.590;10.054;2023-02-04T12:18:30;9.50;79.00
21495;DHT22;10909;53.590;10.054;2023-02-04T12:20:56;9.50;79.10
21495;DHT22;10909;53.590;10.054;2023-02-04T12:23:23;9.60;78.70
21495;DHT22;10909;53.590;10.054;2023-02-04T12:25:50;9.70;77.60
21495;DHT22;10909;53.590;10.054;2023-02-04T12:28:16;9.60;76.90
21495;DHT22;10909;53.590;10.054;2023-02-04T12:30:42;9.60;76.90
21495;DHT22;10909;53.590;10.054;2023-02-04T12:33:07;9.60;77.50
21495;DHT22;10909;53.590;10.054;2023-02-04T12:35:34;9.60;77.70
21495;DHT22;10909;53.590;10.054;2023-02-04T12:38:00;9.60;77.30
21495;DHT22;10909;53.590;10.054;2023-02-04T12:40:27;9.70;78.00
21495;DHT22;10909;53.590;10.054;2023-02-04T12:42:52;9.70;77.70
21495;DHT22;10909;53.590;10.054;2023-02-04T12:45:19;9.70;77.50
21495;DHT22;10909;53.590;10.054;2023-02-04T12:47:45;9.70;77.10
21495;DHT22;10909;53.590;10.054;2023-02-04T12:50:13;9.70;77.50
21495;DHT22;10909;53.590;10.054;2023-02-04T12:52:39;9.70;77.10
21495;DHT22;10909;53.590;10.054;2023-02-04T12:55:07;9.70;77.00
21495;DHT22;10909;53.590;10.054;2023-02-04T12:57:34;9.70;76.60
21495;DHT22;10909;53.590;10.054;2023-02-04T13:00:01;9.70;77.10
21495;DHT22;10909;53.590;10.054;2023-02-04T13:02:27;9.70;76.10
21495;DHT22;10909;53.590;10.054;2023-02-04T13:04:53;9.70;76.40
21495;DHT22;10909;53.590;10.054;2023-02-04T13:07:19;9.70;76.90
21495;DHT22;10909;53.590;10.054;2023-02-04T13:09:46;9.70;76.60
21495;DHT22;10909;53.590;10.054;2023-02-04T13:12:13;9.70;76.70
21495;DHT22;10909;53.590;10.054;2023-02-04T13:14:42;9.70;76.20
21495;DHT22;10909;53.590;10.054;2023-02-04T13:17:08;9.80;76.50
21495;DHT22;10909;53.590;10.054;2023-02-04T13:19:34;9.80;77.30
21495;DHT22;10909;53.590;10.054;2023-02-04T13:22:02;9.90;77.50
21495;DHT22;10909;53.590;10.054;2023-02-04T13:24:28;10.10;78.90
21495;DHT22;10909;53.590;10.054;2023-02-04T13:26:54;10.40;80.20
21495;DHT22;10909;53.590;10.054;2023-02-04T13:29:19;10.70;80.40
21495;DHT22;10909;53.590;10.054;2023-02-04T13:31:47;11.10;81.60
21495;DHT22;10909;53.590;10.054;2023-02-04T13:34:19;11.50;81.30
21495;DHT22;10909;53.590;10.054;2023-02-04T13:36:50;11.80;81.50
21495;DHT22;10909;53.590;10.054;2023-02-04T13:39:15;12.20;81.10
21495;DHT22;10909;53.590;10.054;2023-02-04T13:41:41;12.50;79.80
21495;DHT22;10909;53.590;10.054;2023-02-04T13:44:07;12.80;77.60
21495;DHT22;10909;53.590;10.054;2023-02-04T13:46:33;12.90;77.20
21495;DHT22;10909;53.590;10.054;2023-02-04T13:48:59;13.00;76.40
21495;DHT22;10909;53.590;10.054;2023-02-04T13:51:24;13.10;76.70
21495;DHT22;10909;53.590;10.054;2023-02-04T13:53:50;13.20;75.60
21495;DHT22;10909;53.590;10.054;2023-02-04T13:56:16;13.20;74.90
21495;DHT22;10909;53.590;10.054;2023-02-04T13:58:42;13.30;75.00
21495;DHT22;10909;53.590;10.054;2023-02-04T14:01:13;13.40;75.00
21495;DHT22;10909;53.590;10.054;2023-02-04T14:03:39;13.50;74.30
21495;DHT22;10909;53.590;10.054;2023-02-04T14:06:05;13.50;73.50
21495;DHT22;10909;53.590;10.054;2023-02-04T14:08:30;13.60;72.20
21495;DHT22;10909;53.590;10.054;2023-02-04T14:10:56;13.60;72.10
21495;DHT22;10909;53.590;10.054;2023-02-04T14:13:22;13.60;71.30
21495;DHT22;10909;53.590;10.054;2023-02-04T14:15:48;13.50;70.00
21495;DHT22;10909;53.590;10.054;2023-02-04T14:18:14;13.50;71.10
21495;DHT22;10909;53.590;10.054;2023-02-04T14:20:42;13.40;70.10
21495;DHT22;10909;53.590;10.054;2023-02-04T14:23:14;13.20;69.70
21495;DHT22;10909;53.590;10.054;2023-02-04T14:25:40;13.10;69.40
21495;DHT22;10909;53.590;10.054;2023-02-04T14:28:06;13.00;68.60
21495;DHT22;10909;53.590;10.054;2023-02-04T14:30:33;12.80;67.30
21495;DHT22;10909;53.590;10.054;2023-02-04T14:32:59;12.60;67.30
21495;DHT22;10909;53.590;10.054;2023-02-04T14:35:26;12.40;67.20
21495;DHT22;10909;53.590;10.054;2023-02-04T14:37:52;12.20;66.90
21495;DHT22;10909;53.590;10.054;2023-02-04T14:40:18;11.90;66.30
21495;DHT22;10909;53.590;10.054;2023-02-04T14:42:45;11.70;67.20
21495;DHT22;10909;53.590;10.054;2023-02-04T14:45:12;11.50;67.50
21495;DHT22;10909;53.590;10.054;2023-02-04T14:47:38;11.30;67.10
21495;DHT22;10909;53.590;10.054;2023-02-04T14:50:06;11.10;67.70
21495;DHT22;10909;53.590;10.054;2023-02-04T14:52:32;11.00;67.70
21495;DHT22;10909;53.590;10.054;2023-02-04T14:54:58;10.80;67.80
21495;DHT22;10909;53.590;10.054;2023-02-04T14:57:24;10.60;67.70
21495;DHT22;10909;53.590;10.054;2023-02-04T14:59:51;10.50;68.00
21495;DHT22;10909;53.590;10.054;2023-02-04T15:02:17;10.30;68.20
21495;DHT22;10909;53.590;10.054;2023-02-04T15:04:43;10.20;68.90
21495;DHT22;10909;53.590;10.054;2023-02-04T15:07:10;10.10;69.10
21495;DHT22;10909;53.590;10.054;2023-02-04T15:09:36;10.00;69.40
21495;DHT22;10909;53.590;10.054;2023-02-04T15:12:02;10.00;69.40
21495;DHT22;10909;53.590;10.054;2023-02-04T15:14:27;9.90;68.80
21495;DHT22;10909;53.590;10.054;2023-02-04T15:16:53;9.80;69.10
21495;DHT22;10909;53.590;10.054;2023-02-04T15:19:19;9.70;69.20
21495;DHT22;10909;53.590;10.054;2023-02-04T15:21:45;9.60;69.00
21495;DHT22;10909;53.590;10.054;2023-02-04T15:24:11;9.50;69.70
21495;DHT22;10909;53.590;10.054;2023-02-04T15:26:37;9.40;69.70
21495;DHT22;10909;53.590;10.054;2023-02-04T15:29:04;9.40;69.70
21495;DHT22;10909;53.590;10.054;2023-02-04T15:31:30;9.20;69.60
21495;DHT22;10909;53.590;10.054;2023-02-04T15:33:55;9.20;69.70
21495;DHT22;10909;53.590;10.054;2023-02-04T15:36:27;9.10;69.50
21495;DHT22;10909;53.590;10.054;2023-02-04T15:38:53;9.10;70.80
21495;DHT22;10909;53.590;10.054;2023-02-04T15:41:18;9.00;70.20
21495;DHT22;10909;53.590;10.054;2023-02-04T15:43:44;8.90;69.80
21495;DHT22;10909;53.590;10.054;2023-02-04T15:46:10;8.90;69.60
21495;DHT22;10909;53.590;10.054;2023-02-04T15:48:35;8.80;69.80
21495;DHT22;10909;53.590;10.054;2023-02-04T15:51:01;8.80;70.10